sensor_id;sensor_type;location;lat;lon;timestamp;pressure;altitude;pressure_sealevel;temperature
69348;BMP280;56497;45.058;41.926;2022-08-21T00:00:10;94216.19;;;22.73
69348;BMP280;56497;45.058;41.926;2022-08-21T00:00:41;94216.19;;;22.73
69348;BMP280;56497;45.058;41.926;2022-08-21T00:01:16;94222.13;;;22.70
69348;BMP280;56497;45.058;41.926;2022-08-21T00:01:47;94219.91;;;22.68
69348;BMP280;56497;45.058;41.926;2022-08-21T00:02:22;94225.44;;;22.68
69348;BMP280;56497;45.058;41.926;2022-08-21T00:02:59;94221.94;;;22.68
69348;BMP280;56497;45.058;41.926;2022-08-21T00:03:31;94214.78;;;22.65
69348;BMP280;56497;45.058;41.926;2022-08-21T00:04:07;94214.78;;;22.65
69348;BMP280;56497;45.058;41.926;2022-08-21T00:04:37;94212.72;;;22.65
69348;BMP280;56497;45.058;41.926;2022-08-21T00:05:08;94215.09;;;22.69
69348;BMP280;56497;45.058;41.926;2022-08-21T00:05:44;94215.09;;;22.69
69348;BMP280;56497;45.058;41.926;2022-08-21T00:06:16;94219.16;;;22.68
69348;BMP280;56497;45.058;41.926;2022-08-21T00:06:46;94213.63;;;22.68
69348;BMP280;56497;45.058;41.926;2022-08-21T00:07:35;94219.91;;;22.68
69348;BMP280;56497;45.058;41.926;2022-08-21T00:08:06;94217.53;;;22.57
69348;BMP280;56497;45.058;41.926;2022-08-21T00:08:37;94217.31;;;22.63
69348;BMP280;56497;45.058;41.926;2022-08-21T00:09:08;94217.31;;;22.63
69348;BMP280;56497;45.058;41.926;2022-08-21T00:09:39;94218.59;;;22.62
69348;BMP280;56497;45.058;41.926;2022-08-21T00:10:10;94215.09;;;22.61
69348;BMP280;56497;45.058;41.926;2022-08-21T00:10:43;94221.38;;;22.62
69348;BMP280;56497;45.058;41.926;2022-08-21T00:11:14;94215.84;;;22.62
69348;BMP280;56497;45.058;41.926;2022-08-21T00:11:45;94217.31;;;22.63
69348;BMP280;56497;45.058;41.926;2022-08-21T00:12:15;94219.91;;;22.61
69348;BMP280;56497;45.058;41.926;2022-08-21T00:12:47;94215.31;;;22.63
69348;BMP280;56497;45.058;41.926;2022-08-21T00:13:18;94222.09;;;22.62
69348;BMP280;56497;45.058;41.926;2022-08-21T00:13:49;94220.09;;;22.63
69348;BMP280;56497;45.058;41.926;2022-08-21T00:14:20;94220.09;;;22.63
69348;BMP280;56497;45.058;41.926;2022-08-21T00:14:51;94224.88;;;22.62
69348;BMP280;56497;45.058;41.926;2022-08-21T00:15:25;94224.88;;;22.62
69348;BMP280;56497;45.058;41.926;2022-08-21T00:15:59;94221.38;;;22.62
69348;BMP280;56497;45.058;41.926;2022-08-21T00:16:30;94225.59;;;22.63
69348;BMP280;56497;45.058;41.926;2022-08-21T00:17:01;94220.09;;;22.63
69348;BMP280;56497;45.058;41.926;2022-08-21T00:17:32;94219.56;;;22.64
69348;BMP280;56497;45.058;41.926;2022-08-21T00:18:04;94226.91;;;22.62
69348;BMP280;56497;45.058;41.926;2022-08-21T00:18:35;94225.81;;;22.65
69348;BMP280;56497;45.058;41.926;2022-08-21T00:19:06;94241.09;;;22.66
69348;BMP280;56497;45.058;41.926;2022-08-21T00:19:38;94239.63;;;22.65
69348;BMP280;56497;45.058;41.926;2022-08-21T00:20:10;94237.59;;;22.65
69348;BMP280;56497;45.058;41.926;2022-08-21T00:20:43;94237.59;;;22.65
69348;BMP280;56497;45.058;41.926;2022-08-21T00:21:15;94228.59;;;22.65
69348;BMP280;56497;45.058;41.926;2022-08-21T00:21:45;94230.03;;;22.66
69348;BMP280;56497;45.058;41.926;2022-08-21T00:22:16;94230.03;;;22.66
69348;BMP280;56497;45.058;41.926;2022-08-21T00:22:47;94226.38;;;22.63
69348;BMP280;56497;45.058;41.926;2022-08-21T00:23:18;94224.72;;;22.60
69348;BMP280;56497;45.058;41.926;2022-08-21T00:23:49;94224.88;;;22.62
69348;BMP280;56497;45.058;41.926;2022-08-21T00:24:20;94224.88;;;22.62
69348;BMP280;56497;45.058;41.926;2022-08-21T00:24:51;94214.03;;;22.57
69348;BMP280;56497;45.058;41.926;2022-08-21T00:25:22;94217.16;;;22.61
69348;BMP280;56497;45.058;41.926;2022-08-21T00:25:52;94221.22;;;22.60
69348;BMP280;56497;45.058;41.926;2022-08-21T00:26:23;94219.75;;;22.59
69348;BMP280;56497;45.058;41.926;2022-08-21T00:26:54;94221.75;;;22.58
69348;BMP280;56497;45.058;41.926;2022-08-21T00:27:25;94212.75;;;22.58
69348;BMP280;56497;45.058;41.926;2022-08-21T00:27:56;94219.00;;;22.58
69348;BMP280;56497;45.058;41.926;2022-08-21T00:28:27;94219.00;;;22.58
69348;BMP280;56497;45.058;41.926;2022-08-21T00:28:58;94208.50;;;22.57
69348;BMP280;56497;45.058;41.926;2022-08-21T00:29:28;94212.56;;;22.56
69348;BMP280;56497;45.058;41.926;2022-08-21T00:29:59;94209.97;;;22.58
69348;BMP280;56497;45.058;41.926;2022-08-21T00:30:30;94211.25;;;22.57
69348;BMP280;56497;45.058;41.926;2022-08-21T00:31:01;94211.25;;;22.57
69348;BMP280;56497;45.058;41.926;2022-08-21T00:31:34;94209.06;;;22.55
69348;BMP280;56497;45.058;41.926;2022-08-21T00:32:05;94213.84;;;22.55
69348;BMP280;56497;45.058;41.926;2022-08-21T00:32:37;94218.06;;;22.56
69348;BMP280;56497;45.058;41.926;2022-08-21T00:33:09;94212.56;;;22.56
69348;BMP280;56497;45.058;41.926;2022-08-21T00:33:39;94211.81;;;22.55
69348;BMP280;56497;45.058;41.926;2022-08-21T00:34:11;94211.81;;;22.55
69348;BMP280;56497;45.058;41.926;2022-08-21T00:34:42;94210.34;;;22.54
69348;BMP280;56497;45.058;41.926;2022-08-21T00:35:16;94211.66;;;22.53
69348;BMP280;56497;45.058;41.926;2022-08-21T00:35:47;94212.38;;;22.54
69348;BMP280;56497;45.058;41.926;2022-08-21T00:36:17;94209.44;;;22.52
69348;BMP280;56497;45.058;41.926;2022-08-21T00:36:48;94223.59;;;22.56
69348;BMP280;56497;45.058;41.926;2022-08-21T00:38:08;94213.84;;;22.47
69348;BMP280;56497;45.058;41.926;2022-08-21T00:38:40;94211.81;;;22.48
69348;BMP280;56497;45.058;41.926;2022-08-21T00:39:10;94211.81;;;22.48
69348;BMP280;56497;45.058;41.926;2022-08-21T00:39:41;94214.78;;;22.50
69348;BMP280;56497;45.058;41.926;2022-08-21T00:40:15;94207.03;;;22.48
69348;BMP280;56497;45.058;41.926;2022-08-21T00:40:50;94206.31;;;22.48
69348;BMP280;56497;45.058;41.926;2022-08-21T00:41:22;94200.78;;;22.48
69348;BMP280;56497;45.058;41.926;2022-08-21T00:41:53;94202.81;;;22.47
69348;BMP280;56497;45.058;41.926;2022-08-21T00:42:24;94203.53;;;22.48
69348;BMP280;56497;45.058;41.926;2022-08-21T00:42:55;94198.03;;;22.48
69348;BMP280;56497;45.058;41.926;2022-08-21T00:43:30;94197.28;;;22.47
69348;BMP280;56497;45.058;41.926;2022-08-21T00:44:02;94197.28;;;22.47
69348;BMP280;56497;45.058;41.926;2022-08-21T00:44:33;94199.88;;;22.45
69348;BMP280;56497;45.058;41.926;2022-08-21T00:45:05;94201.88;;;22.45
69348;BMP280;56497;45.058;41.926;2022-08-21T00:45:37;94201.88;;;22.45
69348;BMP280;56497;45.058;41.926;2022-08-21T00:46:08;94199.13;;;22.45
69348;BMP280;56497;45.058;41.926;2022-08-21T00:46:40;94201.88;;;22.45
69348;BMP280;56497;45.058;41.926;2022-08-21T00:47:12;94203.53;;;22.48
69348;BMP280;56497;45.058;41.926;2022-08-21T00:47:42;94204.44;;;22.50
69348;BMP280;56497;45.058;41.926;2022-08-21T00:48:13;94209.44;;;22.52
69348;BMP280;56497;45.058;41.926;2022-08-21T00:48:44;94209.44;;;22.52
69348;BMP280;56497;45.058;41.926;2022-08-21T00:49:15;94209.44;;;22.52
69348;BMP280;56497;45.058;41.926;2022-08-21T00:49:46;94224.72;;;22.53
69348;BMP280;56497;45.058;41.926;2022-08-21T00:50:17;94224.72;;;22.53
69348;BMP280;56497;45.058;41.926;2022-08-21T00:51:10;94229.88;;;22.41
69348;BMP280;56497;45.058;41.926;2022-08-21T00:51:48;94229.88;;;22.41
69348;BMP280;56497;45.058;41.926;2022-08-21T00:52:28;94219.56;;;22.42
69348;BMP280;56497;45.058;41.926;2022-08-21T00:53:01;94222.88;;;22.40
69348;BMP280;56497;45.058;41.926;2022-08-21T00:53:34;94222.34;;;22.42
69348;BMP280;56497;45.058;41.926;2022-08-21T00:54:07;94222.34;;;22.42
69348;BMP280;56497;45.058;41.926;2022-08-21T00:54:39;94223.63;;;22.41
69348;BMP280;56497;45.058;41.926;2022-08-21T00:55:11;94210.38;;;22.39
69348;BMP280;56497;45.058;41.926;2022-08-21T00:55:45;94217.38;;;22.40
69348;BMP280;56497;45.058;41.926;2022-08-21T00:56:16;94212.56;;;22.41
69348;BMP280;56497;45.058;41.926;2022-08-21T00:56:54;94212.56;;;22.41
69348;BMP280;56497;45.058;41.926;2022-08-21T00:57:29;94209.59;;;22.38
69348;BMP280;56497;45.058;41.926;2022-08-21T00:58:03;94208.69;;;22.36
69348;BMP280;56497;45.058;41.926;2022-08-21T00:58:35;94218.47;;;22.37
69348;BMP280;56497;45.058;41.926;2022-08-21T00:59:06;94210.91;;;22.37
69348;BMP280;56497;45.058;41.926;2022-08-21T00:59:38;94208.69;;;22.36
69348;BMP280;56497;45.058;41.926;2022-08-21T01:00:14;94208.69;;;22.36
69348;BMP280;56497;45.058;41.926;2022-08-21T01:00:47;94205.94;;;22.36
69348;BMP280;56497;45.058;41.926;2022-08-21T01:01:18;94201.91;;;22.37
69348;BMP280;56497;45.058;41.926;2022-08-21T01:01:50;94201.91;;;22.37
69348;BMP280;56497;45.058;41.926;2022-08-21T01:02:22;94198.94;;;22.35
69348;BMP280;56497;45.058;41.926;2022-08-21T01:02:53;94198.94;;;22.35
69348;BMP280;56497;45.058;41.926;2022-08-21T01:03:24;94191.97;;;22.34
69348;BMP280;56497;45.058;41.926;2022-08-21T01:03:55;94191.25;;;22.33
69348;BMP280;56497;45.058;41.926;2022-08-21T01:04:26;94202.28;;;22.33
69348;BMP280;56497;45.058;41.926;2022-08-21T01:04:57;94195.25;;;22.32
69348;BMP280;56497;45.058;41.926;2022-08-21T01:05:27;94195.25;;;22.32
69348;BMP280;56497;45.058;41.926;2022-08-21T01:05:58;94198.78;;;22.33
69348;BMP280;56497;45.058;41.926;2022-08-21T01:06:28;94205.03;;;22.33
69348;BMP280;56497;45.058;41.926;2022-08-21T01:06:59;94203.72;;;22.34
69348;BMP280;56497;45.058;41.926;2022-08-21T01:07:30;94206.50;;;22.34
69348;BMP280;56497;45.058;41.926;2022-08-21T01:08:01;94203.72;;;22.34
69348;BMP280;56497;45.058;41.926;2022-08-21T01:08:33;94210.00;;;22.35
69348;BMP280;56497;45.058;41.926;2022-08-21T01:09:04;94206.50;;;22.34
69348;BMP280;56497;45.058;41.926;2022-08-21T01:09:35;94215.50;;;22.35
69348;BMP280;56497;45.058;41.926;2022-08-21T01:10:07;94211.47;;;22.36
69348;BMP280;56497;45.058;41.926;2022-08-21T01:10:38;94212.19;;;22.36
69348;BMP280;56497;45.058;41.926;2022-08-21T01:11:09;94206.69;;;22.36
69348;BMP280;56497;45.058;41.926;2022-08-21T01:11:40;94204.66;;;22.37
69348;BMP280;56497;45.058;41.926;2022-08-21T01:12:13;94207.59;;;22.39
69348;BMP280;56497;45.058;41.926;2022-08-21T01:12:45;94204.84;;;22.39
69348;BMP280;56497;45.058;41.926;2022-08-21T01:13:17;94204.84;;;22.39
69348;BMP280;56497;45.058;41.926;2022-08-21T01:13:48;94202.63;;;22.37
69348;BMP280;56497;45.058;41.926;2022-08-21T01:14:19;94194.53;;;22.39
69348;BMP280;56497;45.058;41.926;2022-08-21T01:14:50;94188.81;;;22.37
69348;BMP280;56497;45.058;41.926;2022-08-21T01:15:23;94198.56;;;22.38
69348;BMP280;56497;45.058;41.926;2022-08-21T01:15:57;94191.59;;;22.37
69348;BMP280;56497;45.058;41.926;2022-08-21T01:16:29;94191.59;;;22.37
69348;BMP280;56497;45.058;41.926;2022-08-21T01:17:02;94183.69;;;22.34
69348;BMP280;56497;45.058;41.926;2022-08-21T01:17:34;94186.22;;;22.32
69348;BMP280;56497;45.058;41.926;2022-08-21T01:18:07;94191.97;;;22.34
69348;BMP280;56497;45.058;41.926;2022-08-21T01:18:38;94192.69;;;22.34
69348;BMP280;56497;45.058;41.926;2022-08-21T01:19:09;94185.88;;;22.35
69348;BMP280;56497;45.058;41.926;2022-08-21T01:19:40;94185.13;;;22.35
69348;BMP280;56497;45.058;41.926;2022-08-21T01:20:11;94185.13;;;22.35
69348;BMP280;56497;45.058;41.926;2022-08-21T01:21:06;94183.84;;;22.36
69348;BMP280;56497;45.058;41.926;2022-08-21T01:21:36;94185.13;;;22.35
69348;BMP280;56497;45.058;41.926;2022-08-21T01:22:07;94186.81;;;22.30
69348;BMP280;56497;45.058;41.926;2022-08-21T01:22:38;94186.81;;;22.30
69348;BMP280;56497;45.058;41.926;2022-08-21T01:23:09;94174.28;;;22.29
69348;BMP280;56497;45.058;41.926;2022-08-21T01:23:43;94174.28;;;22.29
69348;BMP280;56497;45.058;41.926;2022-08-21T01:24:15;94183.69;;;22.26
69348;BMP280;56497;45.058;41.926;2022-08-21T01:24:45;94179.63;;;22.27
69348;BMP280;56497;45.058;41.926;2022-08-21T01:25:17;94179.63;;;22.27
69348;BMP280;56497;45.058;41.926;2022-08-21T01:25:49;94173.91;;;22.25
69348;BMP280;56497;45.058;41.926;2022-08-21T01:26:27;94170.41;;;22.25
69348;BMP280;56497;45.058;41.926;2022-08-21T01:26:59;94179.97;;;22.24
69348;BMP280;56497;45.058;41.926;2022-08-21T01:27:30;94175.03;;;22.22
69348;BMP280;56497;45.058;41.926;2022-08-21T01:28:07;94176.31;;;22.21
69348;BMP280;56497;45.058;41.926;2022-08-21T01:28:44;94169.31;;;22.20
69348;BMP280;56497;45.058;41.926;2022-08-21T01:29:51;94173.56;;;22.06
69348;BMP280;56497;45.058;41.926;2022-08-21T01:30:26;94173.56;;;22.06
69348;BMP280;56497;45.058;41.926;2022-08-21T01:30:57;94175.38;;;22.03
69348;BMP280;56497;45.058;41.926;2022-08-21T01:31:29;94172.81;;;22.06
69348;BMP280;56497;45.058;41.926;2022-08-21T01:32:05;94172.09;;;22.05
69348;BMP280;56497;45.058;41.926;2022-08-21T01:32:36;94172.09;;;22.05
69348;BMP280;56497;45.058;41.926;2022-08-21T01:33:07;94172.09;;;22.05
69348;BMP280;56497;45.058;41.926;2022-08-21T01:33:38;94171.34;;;22.05
69348;BMP280;56497;45.058;41.926;2022-08-21T01:34:09;94180.53;;;22.07
69348;BMP280;56497;45.058;41.926;2022-08-21T01:34:42;94168.78;;;22.07
69348;BMP280;56497;45.058;41.926;2022-08-21T01:35:15;94175.00;;;22.07
69348;BMP280;56497;45.058;41.926;2022-08-21T01:35:46;94168.03;;;22.06
69348;BMP280;56497;45.058;41.926;2022-08-21T01:36:17;94168.03;;;22.06
69348;BMP280;56497;45.058;41.926;2022-08-21T01:36:48;94168.03;;;22.06
69348;BMP280;56497;45.058;41.926;2022-08-21T01:37:21;94167.84;;;22.04
69348;BMP280;56497;45.058;41.926;2022-08-21T01:37:52;94163.63;;;22.03
69348;BMP280;56497;45.058;41.926;2022-08-21T01:38:22;94160.88;;;22.03
69348;BMP280;56497;45.058;41.926;2022-08-21T01:38:53;94160.88;;;22.03
69348;BMP280;56497;45.058;41.926;2022-08-21T01:39:24;94160.66;;;22.01
69348;BMP280;56497;45.058;41.926;2022-08-21T01:39:54;94162.13;;;22.02
69348;BMP280;56497;45.058;41.926;2022-08-21T01:40:25;94162.13;;;22.02
69348;BMP280;56497;45.058;41.926;2022-08-21T01:40:56;94160.50;;;21.99
69348;BMP280;56497;45.058;41.926;2022-08-21T01:41:26;94161.94;;;22.00
69348;BMP280;56497;45.058;41.926;2022-08-21T01:41:57;94159.19;;;22.00
69348;BMP280;56497;45.058;41.926;2022-08-21T01:42:28;94152.22;;;21.99
69348;BMP280;56497;45.058;41.926;2022-08-21T01:42:58;94152.22;;;21.99
69348;BMP280;56497;45.058;41.926;2022-08-21T01:43:29;94157.75;;;21.99
69348;BMP280;56497;45.058;41.926;2022-08-21T01:44:00;94154.78;;;21.97
69348;BMP280;56497;45.058;41.926;2022-08-21T01:44:31;94154.78;;;21.97
69348;BMP280;56497;45.058;41.926;2022-08-21T01:45:03;94151.28;;;21.96
69348;BMP280;56497;45.058;41.926;2022-08-21T01:45:33;94147.78;;;21.96
69348;BMP280;56497;45.058;41.926;2022-08-21T01:46:04;94150.91;;;21.92
69348;BMP280;56497;45.058;41.926;2022-08-21T01:46:35;94140.47;;;21.91
69348;BMP280;56497;45.058;41.926;2022-08-21T01:47:08;94140.47;;;21.91
69348;BMP280;56497;45.058;41.926;2022-08-21T01:47:38;94144.47;;;21.90
69348;BMP280;56497;45.058;41.926;2022-08-21T01:48:09;94145.00;;;21.88
69348;BMP280;56497;45.058;41.926;2022-08-21T01:48:41;94145.00;;;21.88
69348;BMP280;56497;45.058;41.926;2022-08-21T01:49:12;94149.78;;;21.88
69348;BMP280;56497;45.058;41.926;2022-08-21T01:49:44;94147.63;;;21.86
69348;BMP280;56497;45.058;41.926;2022-08-21T01:50:17;94153.13;;;21.86
69348;BMP280;56497;45.058;41.926;2022-08-21T01:50:48;94153.69;;;21.85
69348;BMP280;56497;45.058;41.926;2022-08-21T01:51:19;94154.41;;;21.85
69348;BMP280;56497;45.058;41.926;2022-08-21T01:51:49;94159.94;;;21.85
69348;BMP280;56497;45.058;41.926;2022-08-21T01:52:20;94159.94;;;21.85
69348;BMP280;56497;45.058;41.926;2022-08-21T01:52:51;94145.94;;;21.83
69348;BMP280;56497;45.058;41.926;2022-08-21T01:53:22;94153.69;;;21.85
69348;BMP280;56497;45.058;41.926;2022-08-21T01:53:52;94159.19;;;21.85
69348;BMP280;56497;45.058;41.926;2022-08-21T01:54:23;94159.19;;;21.85
69348;BMP280;56497;45.058;41.926;2022-08-21T01:54:54;94161.75;;;21.83
69348;BMP280;56497;45.058;41.926;2022-08-21T01:55:24;94150.72;;;21.83
69348;BMP280;56497;45.058;41.926;2022-08-21T01:55:55;94157.53;;;21.82
69348;BMP280;56497;45.058;41.926;2022-08-21T01:56:26;94161.03;;;21.82
69348;BMP280;56497;45.058;41.926;2022-08-21T01:56:58;94153.13;;;21.79
69348;BMP280;56497;45.058;41.926;2022-08-21T01:57:29;94153.13;;;21.79
69348;BMP280;56497;45.058;41.926;2022-08-21T01:58:00;94163.78;;;21.82
69348;BMP280;56497;45.058;41.926;2022-08-21T01:58:30;94162.31;;;21.81
69348;BMP280;56497;45.058;41.926;2022-08-21T01:59:01;94151.81;;;21.80
69348;BMP280;56497;45.058;41.926;2022-08-21T01:59:33;94151.81;;;21.80
69348;BMP280;56497;45.058;41.926;2022-08-21T02:00:07;94153.13;;;21.79
69348;BMP280;56497;45.058;41.926;2022-08-21T02:00:40;94149.41;;;21.76
69348;BMP280;56497;45.058;41.926;2022-08-21T02:01:10;94152.75;;;21.75
69348;BMP280;56497;45.058;41.926;2022-08-21T02:01:41;94159.00;;;21.75
69348;BMP280;56497;45.058;41.926;2022-08-21T02:02:12;94159.00;;;21.75
69348;BMP280;56497;45.058;41.926;2022-08-21T02:02:42;94154.19;;;21.76
69348;BMP280;56497;45.058;41.926;2022-08-21T02:03:13;94158.28;;;21.75
69348;BMP280;56497;45.058;41.926;2022-08-21T02:03:44;94169.31;;;21.75
69348;BMP280;56497;45.058;41.926;2022-08-21T02:04:15;94165.06;;;21.74
69348;BMP280;56497;45.058;41.926;2022-08-21T02:04:46;94165.06;;;21.74
69348;BMP280;56497;45.058;41.926;2022-08-21T02:05:18;94157.53;;;21.74
69348;BMP280;56497;45.058;41.926;2022-08-21T02:05:49;94163.06;;;21.74
69348;BMP280;56497;45.058;41.926;2022-08-21T02:06:19;94164.34;;;21.73
69348;BMP280;56497;45.058;41.926;2022-08-21T02:06:50;94162.31;;;21.74
69348;BMP280;56497;45.058;41.926;2022-08-21T02:07:20;94165.06;;;21.74
69348;BMP280;56497;45.058;41.926;2022-08-21T02:07:53;94160.84;;;21.73
69348;BMP280;56497;45.058;41.926;2022-08-21T02:08:24;94167.44;;;21.70
69348;BMP280;56497;45.058;41.926;2022-08-21T02:08:55;94159.00;;;21.68
69348;BMP280;56497;45.058;41.926;2022-08-21T02:09:25;94159.00;;;21.68
69348;BMP280;56497;45.058;41.926;2022-08-21T02:09:56;94170.56;;;21.66
69348;BMP280;56497;45.058;41.926;2022-08-21T02:10:30;94160.81;;;21.65
69348;BMP280;56497;45.058;41.926;2022-08-21T02:11:01;94157.88;;;21.63
69348;BMP280;56497;45.058;41.926;2022-08-21T02:11:34;94157.88;;;21.63
69348;BMP280;56497;45.058;41.926;2022-08-21T02:12:06;94157.88;;;21.63
69348;BMP280;56497;45.058;41.926;2022-08-21T02:12:36;94151.44;;;21.60
69348;BMP280;56497;45.058;41.926;2022-08-21T02:13:07;94164.69;;;21.62
69348;BMP280;56497;45.058;41.926;2022-08-21T02:13:39;94160.44;;;21.61
69348;BMP280;56497;45.058;41.926;2022-08-21T02:14:11;94151.44;;;21.60
69348;BMP280;56497;45.058;41.926;2022-08-21T02:14:42;94152.91;;;21.61
69348;BMP280;56497;45.058;41.926;2022-08-21T02:15:12;94152.16;;;21.61
69348;BMP280;56497;45.058;41.926;2022-08-21T02:15:43;94153.66;;;21.62
69348;BMP280;56497;45.058;41.926;2022-08-21T02:16:14;94148.88;;;21.62
69348;BMP280;56497;45.058;41.926;2022-08-21T02:16:46;94146.13;;;21.62
69348;BMP280;56497;45.058;41.926;2022-08-21T02:17:17;94144.09;;;21.63
69348;BMP280;56497;45.058;41.926;2022-08-21T02:17:51;94148.69;;;21.60
69348;BMP280;56497;45.058;41.926;2022-08-21T02:18:22;94156.19;;;21.60
69348;BMP280;56497;45.058;41.926;2022-08-21T02:18:53;94156.19;;;21.60
69348;BMP280;56497;45.058;41.926;2022-08-21T02:19:24;94157.50;;;21.59
69348;BMP280;56497;45.058;41.926;2022-08-21T02:19:54;94152.72;;;21.59
69348;BMP280;56497;45.058;41.926;2022-08-21T02:20:34;94149.97;;;21.59
69348;BMP280;56497;45.058;41.926;2022-08-21T02:21:05;94155.63;;;21.54
69348;BMP280;56497;45.058;41.926;2022-08-21T02:21:36;94161.34;;;21.56
69348;BMP280;56497;45.058;41.926;2022-08-21T02:22:10;94171.44;;;21.53
69348;BMP280;56497;45.058;41.926;2022-08-21T02:22:41;94167.22;;;21.52
69348;BMP280;56497;45.058;41.926;2022-08-21T02:23:13;94167.22;;;21.52
69348;BMP280;56497;45.058;41.926;2022-08-21T02:23:44;94169.97;;;21.52
69348;BMP280;56497;45.058;41.926;2022-08-21T02:24:15;94176.06;;;21.51
69348;BMP280;56497;45.058;41.926;2022-08-21T02:24:46;94168.53;;;21.51
69348;BMP280;56497;45.058;41.926;2022-08-21T02:25:19;94174.94;;;21.54
69348;BMP280;56497;45.058;41.926;2022-08-21T02:25:49;94174.94;;;21.54
69348;BMP280;56497;45.058;41.926;2022-08-21T02:26:20;94178.97;;;21.53
69348;BMP280;56497;45.058;41.926;2022-08-21T02:26:50;94169.22;;;21.52
69348;BMP280;56497;45.058;41.926;2022-08-21T02:27:23;94172.00;;;21.52
69348;BMP280;56497;45.058;41.926;2022-08-21T02:27:55;94169.81;;;21.50
69348;BMP280;56497;45.058;41.926;2022-08-21T02:28:26;94170.34;;;21.49
69348;BMP280;56497;45.058;41.926;2022-08-21T02:28:57;94168.13;;;21.47
69348;BMP280;56497;45.058;41.926;2022-08-21T02:29:28;94171.59;;;21.48
69348;BMP280;56497;45.058;41.926;2022-08-21T02:29:58;94181.19;;;21.47
69348;BMP280;56497;45.058;41.926;2022-08-21T02:30:32;94180.44;;;21.46
69348;BMP280;56497;45.058;41.926;2022-08-21T02:31:04;94180.44;;;21.46
69348;BMP280;56497;45.058;41.926;2022-08-21T02:31:35;94176.75;;;21.44
69348;BMP280;56497;45.058;41.926;2022-08-21T02:32:05;94176.75;;;21.44
69348;BMP280;56497;45.058;41.926;2022-08-21T02:32:36;94185.75;;;21.44
69348;BMP280;56497;45.058;41.926;2022-08-21T02:33:08;94180.97;;;21.45
69348;BMP280;56497;45.058;41.926;2022-08-21T02:33:40;94180.44;;;21.46
69348;BMP280;56497;45.058;41.926;2022-08-21T02:34:11;94187.44;;;21.47
69348;BMP280;56497;45.058;41.926;2022-08-21T02:34:41;94187.44;;;21.47
69348;BMP280;56497;45.058;41.926;2022-08-21T02:35:12;94187.44;;;21.47
69348;BMP280;56497;45.058;41.926;2022-08-21T02:35:45;94187.44;;;21.47
69348;BMP280;56497;45.058;41.926;2022-08-21T02:36:16;94181.91;;;21.47
69348;BMP280;56497;45.058;41.926;2022-08-21T02:36:47;94178.41;;;21.47
69348;BMP280;56497;45.058;41.926;2022-08-21T02:37:18;94179.16;;;21.47
69348;BMP280;56497;45.058;41.926;2022-08-21T02:37:51;94182.63;;;21.48
69348;BMP280;56497;45.058;41.926;2022-08-21T02:38:28;94175.66;;;21.47
69348;BMP280;56497;45.058;41.926;2022-08-21T02:38:59;94180.97;;;21.45
69348;BMP280;56497;45.058;41.926;2022-08-21T02:39:30;94180.97;;;21.45
69348;BMP280;56497;45.058;41.926;2022-08-21T02:40:01;94169.22;;;21.44
69348;BMP280;56497;45.058;41.926;2022-08-21T02:40:36;94169.22;;;21.44
69348;BMP280;56497;45.058;41.926;2022-08-21T02:41:11;94169.22;;;21.44
69348;BMP280;56497;45.058;41.926;2022-08-21T02:41:43;94184.09;;;21.41
69348;BMP280;56497;45.058;41.926;2022-08-21T02:42:13;94182.06;;;21.42
69348;BMP280;56497;45.058;41.926;2022-08-21T02:42:44;94182.06;;;21.42
69348;BMP280;56497;45.058;41.926;2022-08-21T02:43:15;94189.59;;;21.41
69348;BMP280;56497;45.058;41.926;2022-08-21T02:43:47;94183.34;;;21.41
69348;BMP280;56497;45.058;41.926;2022-08-21T02:44:17;94186.84;;;21.41
69348;BMP280;56497;45.058;41.926;2022-08-21T02:44:48;94189.59;;;21.41
69348;BMP280;56497;45.058;41.926;2022-08-21T02:45:19;94200.84;;;21.43
69348;BMP280;56497;45.058;41.926;2022-08-21T02:45:51;94200.84;;;21.43
69348;BMP280;56497;45.058;41.926;2022-08-21T02:46:22;94193.84;;;21.42
69348;BMP280;56497;45.058;41.926;2022-08-21T02:46:52;94198.09;;;21.43
69348;BMP280;56497;45.058;41.926;2022-08-21T02:47:23;94202.31;;;21.44
69348;BMP280;56497;45.058;41.926;2022-08-21T02:47:56;94189.09;;;21.43
69348;BMP280;56497;45.058;41.926;2022-08-21T02:48:30;94189.09;;;21.43
69348;BMP280;56497;45.058;41.926;2022-08-21T02:49:01;94191.09;;;21.42
69348;BMP280;56497;45.058;41.926;2022-08-21T02:49:31;94188.69;;;21.39
69348;BMP280;56497;45.058;41.926;2022-08-21T02:50:04;94192.59;;;21.43
69348;BMP280;56497;45.058;41.926;2022-08-21T02:50:46;94198.63;;;21.42
69348;BMP280;56497;45.058;41.926;2022-08-21T02:51:19;94198.63;;;21.42
69348;BMP280;56497;45.058;41.926;2022-08-21T02:51:50;94190.72;;;21.38
69348;BMP280;56497;45.058;41.926;2022-08-21T02:52:21;94199.16;;;21.40
69348;BMP280;56497;45.058;41.926;2022-08-21T02:52:52;94200.63;;;21.41
69348;BMP280;56497;45.058;41.926;2022-08-21T02:53:26;94201.38;;;21.42
69348;BMP280;56497;45.058;41.926;2022-08-21T02:53:57;94194.38;;;21.41
69348;BMP280;56497;45.058;41.926;2022-08-21T02:54:28;94206.38;;;21.43
69348;BMP280;56497;45.058;41.926;2022-08-21T02:54:58;94192.59;;;21.43
69348;BMP280;56497;45.058;41.926;2022-08-21T02:55:30;94205.25;;;21.46
69348;BMP280;56497;45.058;41.926;2022-08-21T02:56:04;94205.25;;;21.46
69348;BMP280;56497;45.058;41.926;2022-08-21T02:56:35;94196.78;;;21.44
69348;BMP280;56497;45.058;41.926;2022-08-21T02:57:06;94194.03;;;21.44
69348;BMP280;56497;45.058;41.926;2022-08-21T02:57:38;94203.78;;;21.45
69348;BMP280;56497;45.058;41.926;2022-08-21T02:58:09;94197.00;;;21.46
69348;BMP280;56497;45.058;41.926;2022-08-21T02:58:44;94199.00;;;21.46
69348;BMP280;56497;45.058;41.926;2022-08-21T02:59:15;94199.00;;;21.46
69348;BMP280;56497;45.058;41.926;2022-08-21T02:59:45;94184.81;;;21.42
69348;BMP280;56497;45.058;41.926;2022-08-21T03:00:17;94196.78;;;21.44
69348;BMP280;56497;45.058;41.926;2022-08-21T03:00:47;94194.78;;;21.45
69348;BMP280;56497;45.058;41.926;2022-08-21T03:01:18;94193.50;;;21.46
69348;BMP280;56497;45.058;41.926;2022-08-21T03:01:49;94207.44;;;21.48
69348;BMP280;56497;45.058;41.926;2022-08-21T03:02:20;94199.94;;;21.48